Terminal Aerodrome Forecast
Issued by NWS

Home | Current Version | Previous Version | Text Only | Print | Product List | Glossary On
Versions: 1 2 3 4 5 6 7 8 9 10 11 12 13 14 15 16
285
FTAK31 PAJN 090521
TAFASI
TAF
PASI 090521Z 0906/1006 18020G30KT 6SM -RA BR SCT006 OVC025
      WS020/19045KT
     FM090700 20010G20KT P6SM -RA SCT007 OVC025
     FM091000 17006KT P6SM VCSH SCT020 BKN035 OVC060
     FM091600 04004KT P6SM VCSH SCT030 SCT060 BKN080
     FM100200 10010G18KT P6SM SCT030 OVC060 WS020/10035KT=

USA.gov is the U.S. government's official web portal to all federal, state and local government web resources and services.